Time;durP1;ratioP1;P1;durP2;ratioP2;P2;SDS_P1;SDS_P2;PMS_P1;PMS_P2;Temp;Humidity;BMP_temperature;BMP_pressure;BME280_temperature;BME280_humidity;BME280_pressure;Samples;Min_cycle;Max_cycle;Signal;HPM_P1;HPM_P2
2023/02/27 06:14:16;;;;;;;387.63;374.52;;;-5.00;99.90;;;;;;6220030;22;20210;-91
2023/02/27 06:16:43;;;;;;;493.63;475.90;;;-4.90;99.90;;;;;;6189208;23;20180;-90
2023/02/27 06:19:10;;;;;;;557.10;535.58;;;-4.80;99.90;;;;;;6223403;23;20169;-88
2023/02/27 06:34:51;;;;;;;9.20;5.90;;;-4.70;99.90;;;;;;6199544;22;1352484;-87
2023/02/27 06:37:18;;;;;;;9.95;7.03;;;-4.00;99.90;;;;;;6232331;23;20469;-87
2023/02/27 06:39:45;;;;;;;10.68;6.35;;;-4.10;99.90;;;;;;6221939;23;20188;-86
2023/02/27 06:42:12;;;;;;;9.60;6.75;;;-4.00;99.90;;;;;;6222466;23;20644;-88
2023/02/27 06:44:41;;;;;;;15.45;7.13;;;-3.80;99.90;;;;;;6222862;23;20220;-91
2023/02/27 06:47:11;;;;;;;12.40;6.25;;;-3.80;99.90;;;;;;6232038;23;20573;-88
2023/02/27 06:49:40;;;;;;;7.22;3.85;;;-3.70;99.90;;;;;;6221817;23;20156;-87
2023/02/27 06:54:48;;;;;;;8.02;6.32;;;-3.50;99.90;;;;;;6198757;23;20534;-87
2023/02/27 06:57:19;;;;;;;14.82;6.90;;;-3.40;99.90;;;;;;6202168;23;20150;-86
2023/02/27 06:59:46;;;;;;;11.70;8.35;;;-3.50;99.90;;;;;;6191751;23;20176;-84
2023/02/27 07:02:22;;;;;;;18.25;9.77;;;-3.70;99.90;;;;;;6202257;23;20161;-86
2023/02/27 07:15:23;;;;;;;11.95;7.18;;;-3.40;99.90;;;;;;6182518;23;20592;-86
2023/02/27 07:17:53;;;;;;;13.00;9.15;;;-2.90;99.90;;;;;;6192457;23;20212;-85
2023/02/27 07:20:21;;;;;;;14.05;11.07;;;-3.00;99.90;;;;;;6192033;23;20220;-88
2023/02/27 07:22:49;;;;;;;16.70;10.32;;;-2.90;99.90;;;;;;6191738;23;20269;-88
2023/02/27 07:25:17;;;;;;;11.77;10.57;;;-2.70;99.90;;;;;;6189677;23;20194;-88
2023/02/27 07:27:58;;;;;;;;;;;;;;;;;;;;;
2023/02/27 07:30:23;;;;;;;13.82;11.15;;;-2.50;99.90;;;;;;6189776;23;20303;-87
2023/02/27 07:32:52;;;;;;;16.90;11.65;;;-2.30;99.90;;;;;;6191826;23;20480;-86
2023/02/27 07:35:25;;;;;;;16.73;15.20;;;-2.30;99.90;;;;;;6185870;23;20268;-89
2023/02/27 07:37:52;;;;;;;9.00;7.10;;;-2.00;99.90;;;;;;6158351;23;20681;-83
2023/02/27 07:40:20;;;;;;;7.97;7.25;;;-2.00;99.90;;;;;;6158925;23;20181;-86
2023/02/27 07:42:48;;;;;;;8.98;7.75;;;-1.70;99.90;;;;;;6194655;23;20186;-87
2023/02/27 07:45:21;;;;;;;14.45;10.77;;;-1.30;99.90;;;;;;6194271;23;20189;-87
2023/02/27 07:47:48;;;;;;;17.33;15.93;;;-1.60;99.90;;;;;;6194154;23;20165;-86
2023/02/27 07:50:15;;;;;;;740.38;700.70;;;-1.60;99.90;;;;;;6191470;23;20419;-86
2023/02/27 07:52:44;;;;;;;566.67;544.17;;;-1.60;99.90;;;;;;6193884;23;20166;-87
2023/02/27 07:55:12;;;;;;;528.50;508.73;;;-1.40;99.90;;;;;;6194468;23;20259;-89
2023/02/27 07:57:39;;;;;;;401.45;386.60;;;-0.90;99.90;;;;;;6193930;23;20166;-87
2023/02/27 08:00:09;;;;;;;287.90;278.42;;;-1.20;99.90;;;;;;6194179;23;20168;-87
2023/02/27 08:02:37;;;;;;;123.18;118.38;;;-1.00;99.90;;;;;;6193611;23;20668;-87
2023/02/27 08:05:05;;;;;;;80.30;76.20;;;-0.90;99.90;;;;;;6194083;23;20188;-87
2023/02/27 08:07:32;;;;;;;24.05;22.60;;;-0.90;99.90;;;;;;6193877;23;20174;-87
2023/02/27 08:10:04;;;;;;;34.63;32.03;;;-0.80;99.90;;;;;;6194114;23;20622;-87
2023/02/27 08:12:33;;;;;;;37.20;34.90;;;-0.70;99.90;;;;;;6194400;23;20417;-87
2023/02/27 08:15:04;;;;;;;28.40;25.87;;;-0.60;99.90;;;;;;6194120;23;20201;-87
2023/02/27 08:17:31;;;;;;;12.57;11.60;;;-0.50;99.90;;;;;;6194311;23;20417;-88
2023/02/27 08:20:00;;;;;;;25.30;23.50;;;-0.40;99.90;;;;;;6194475;23;20169;-87
2023/02/27 08:22:27;;;;;;;21.85;19.65;;;-0.30;99.90;;;;;;6194335;23;20535;-87
2023/02/27 08:24:54;;;;;;;21.00;19.50;;;-0.40;99.90;;;;;;6193581;23;20193;-87
2023/02/27 08:27:21;;;;;;;10.45;9.40;;;-0.20;99.90;;;;;;6194203;23;20751;-87
2023/02/27 08:29:48;;;;;;;15.37;13.73;;;-0.10;99.90;;;;;;6193904;23;20638;-87
2023/02/27 08:32:15;;;;;;;10.60;9.10;;;-0.20;99.90;;;;;;6194422;23;20731;-87
2023/02/27 08:34:42;;;;;;;16.90;12.17;;;0.00;99.90;;;;;;6194611;23;20193;-87
2023/02/27 08:37:13;;;;;;;7.28;6.57;;;0.10;99.90;;;;;;6194334;23;20423;-87
2023/02/27 08:39:40;;;;;;;9.27;6.30;;;0.10;99.90;;;;;;6193798;23;20169;-87
2023/02/27 08:42:07;;;;;;;9.07;5.40;;;0.60;99.90;;;;;;6194106;23;20487;-86
2023/02/27 08:44:34;;;;;;;14.03;9.70;;;0.40;99.90;;;;;;6193642;23;20661;-87
2023/02/27 08:47:05;;;;;;;11.30;8.77;;;0.60;99.90;;;;;;6193646;23;20417;-87
2023/02/27 08:49:32;;;;;;;9.93;8.87;;;0.40;99.90;;;;;;6193829;23;20423;-87
2023/02/27 08:52:02;;;;;;;7.87;6.17;;;0.60;99.90;;;;;;6193300;23;20492;-87
2023/02/27 08:54:31;;;;;;;13.18;8.43;;;0.70;99.90;;;;;;6193315;23;20415;-87
2023/02/27 08:56:58;;;;;;;11.40;9.13;;;0.80;99.90;;;;;;6193386;23;20228;-86
2023/02/27 08:59:26;;;;;;;14.20;8.80;;;0.80;99.90;;;;;;6194219;23;20415;-87
2023/02/27 09:01:53;;;;;;;17.00;9.33;;;0.90;99.90;;;;;;6194318;23;20412;-87
2023/02/27 09:04:20;;;;;;;12.63;7.67;;;1.10;99.90;;;;;;6194333;23;20448;-87
2023/02/27 09:06:47;;;;;;;12.37;7.47;;;1.10;99.90;;;;;;6194131;23;20444;-87
2023/02/27 09:09:14;;;;;;;9.93;5.53;;;1.10;99.90;;;;;;6193563;23;20417;-86
2023/02/27 09:11:45;;;;;;;12.37;7.47;;;1.20;99.90;;;;;;6194704;23;20444;-87
2023/02/27 09:14:12;;;;;;;12.27;7.20;;;1.30;99.90;;;;;;6193922;23;20508;-86
2023/02/27 09:16:39;;;;;;;9.93;6.50;;;1.70;99.90;;;;;;6193949;23;20417;-86
2023/02/27 09:19:06;;;;;;;11.37;7.03;;;1.60;99.90;;;;;;6193468;23;20436;-86
2023/02/27 09:21:33;;;;;;;12.37;6.13;;;1.70;99.90;;;;;;6194420;23;20478;-85
2023/02/27 09:24:00;;;;;;;8.33;5.60;;;1.90;99.90;;;;;;6194216;23;20460;-86
2023/02/27 09:26:27;;;;;;;12.03;5.43;;;2.20;99.90;;;;;;6194162;23;20471;-87
2023/02/27 09:28:55;;;;;;;8.93;6.23;;;2.50;99.90;;;;;;6193852;23;20405;-85
2023/02/27 09:31:23;;;;;;;15.13;5.50;;;2.90;99.80;;;;;;6193802;23;20487;-86
2023/02/27 09:33:50;;;;;;;10.80;6.03;;;3.20;99.90;;;;;;6193136;23;20436;-86
2023/02/27 09:36:17;;;;;;;9.67;6.53;;;3.50;97.00;;;;;;6192635;23;20413;-88
2023/02/27 09:38:45;;;;;;;8.20;5.70;;;3.80;96.50;;;;;;6193145;23;20457;-87
2023/02/27 09:41:42;;;;;;;9.55;5.13;;;4.10;94.30;;;;;;6193885;23;20755;-88
2023/02/27 09:44:21;;;;;;;9.33;5.33;;;4.50;92.00;;;;;;6194107;23;20190;-88
2023/02/27 09:46:48;;;;;;;10.60;5.37;;;5.00;92.00;;;;;;6194140;23;20409;-88
2023/02/27 09:49:19;;;;;;;11.00;5.20;;;5.50;90.40;;;;;;6193697;23;20411;-86
2023/02/27 09:51:47;;;;;;;10.13;4.80;;;5.40;87.40;;;;;;6192879;23;20502;-86
2023/02/27 09:54:14;;;;;;;6.13;3.10;;;5.50;85.20;;;;;;6193757;23;20440;-87
2023/02/27 09:56:51;;;;;;;6.17;3.50;;;5.40;81.80;;;;;;6194136;23;20741;-87
2023/02/27 09:59:31;;;;;;;6.27;3.00;;;5.60;78.60;;;;;;6194074;23;20408;-86
2023/02/27 10:02:05;;;;;;;6.37;2.60;;;6.10;79.60;;;;;;6194471;23;20413;-86
2023/02/27 10:04:44;;;;;;;8.00;3.00;;;6.50;77.30;;;;;;6194121;23;20535;-86
2023/02/27 10:07:17;;;;;;;6.47;3.20;;;6.30;73.50;;;;;;6192462;23;20419;-85
2023/02/27 10:09:52;;;;;;;7.40;2.90;;;6.40;74.00;;;;;;6193638;23;20420;-85
2023/02/27 10:12:30;;;;;;;7.83;2.80;;;6.90;71.90;;;;;;6193317;23;20932;-85
2023/02/27 10:15:04;;;;;;;7.00;2.73;;;6.70;69.50;;;;;;6193503;23;20495;-86
2023/02/27 10:17:36;;;;;;;9.00;2.57;;;6.60;69.50;;;;;;6193887;23;20447;-85
2023/02/27 10:20:09;;;;;;;4.50;1.80;;;6.90;68.60;;;;;;6193805;23;20394;-85
2023/02/27 10:22:41;;;;;;;6.07;2.77;;;6.60;66.70;;;;;;6193628;23;20507;-86
2023/02/27 10:25:13;;;;;;;9.63;2.77;;;7.30;68.30;;;;;;6193598;23;20944;-86
2023/02/27 10:27:41;;;;;;;6.73;2.50;;;7.60;65.80;;;;;;6193337;23;20512;-86
2023/02/27 10:30:21;;;;;;;7.80;2.60;;;7.70;63.90;;;;;;6193091;23;20420;-85
2023/02/27 10:32:52;;;;;;;5.77;2.40;;;7.60;61.60;;;;;;6193048;23;20416;-85
2023/02/27 10:35:27;;;;;;;6.17;2.50;;;7.10;61.80;;;;;;6193505;23;20511;-85
2023/02/27 10:38:00;;;;;;;6.83;2.63;;;7.10;61.90;;;;;;6193669;23;20454;-85
2023/02/27 10:40:30;;;;;;;5.60;2.40;;;7.40;62.00;;;;;;6193598;23;20417;-86
2023/02/27 10:43:01;;;;;;;7.10;3.00;;;7.40;63.30;;;;;;6193770;23;20491;-85
2023/02/27 10:45:29;;;;;;;6.00;2.60;;;8.20;60.40;;;;;;6193596;23;20433;-86
2023/02/27 10:47:57;;;;;;;10.03;2.50;;;8.00;57.80;;;;;;6193013;23;20417;-85
2023/02/27 10:50:26;;;;;;;6.07;2.40;;;7.70;58.80;;;;;;6193632;23;20409;-85
2023/02/27 10:52:57;;;;;;;5.57;1.80;;;8.40;60.60;;;;;;6193397;23;20424;-87
2023/02/27 10:57:58;;;;;;;8.70;2.30;;;8.00;55.70;;;;;;6173875;23;21002;-87
2023/02/27 11:00:41;;;;;;;6.00;2.07;;;8.20;56.10;;;;;;6193891;23;20400;-86
2023/02/27 11:03:19;;;;;;;8.87;2.37;;;8.90;55.00;;;;;;6184353;23;20451;-86
2023/02/27 11:05:54;;;;;;;5.10;1.83;;;8.70;55.00;;;;;;6181787;23;20437;-87
2023/02/27 11:08:23;;;;;;;5.80;2.37;;;8.70;55.40;;;;;;6192850;23;20416;-86
2023/02/27 11:13:28;;;;;;;5.67;1.80;;;9.30;48.30;;;;;;6184457;23;20425;-85
2023/02/27 11:19:25;;;;;;;10.23;2.10;;;10.80;42.70;;;;;;6183579;23;20492;-84
2023/02/27 11:22:23;;;;;;;5.43;1.70;;;10.40;38.80;;;;;;6184895;23;20445;-83
2023/02/27 11:25:22;;;;;;;6.77;2.10;;;10.70;42.30;;;;;;6181846;23;20434;-84
2023/02/27 11:27:50;;;;;;;5.67;1.80;;;10.10;38.90;;;;;;6195874;23;20419;-86
2023/02/27 11:36:09;;;;;;;5.70;1.63;;;9.90;37.90;;;;;;6184731;23;20948;-85
2023/02/27 11:38:42;;;;;;;7.27;2.73;;;8.60;43.70;;;;;;6183321;23;20939;-84
2023/02/27 11:41:13;;;;;;;6.57;1.87;;;8.60;45.70;;;;;;6194203;23;20471;-84
2023/02/27 12:41:35;;;;;;;6.60;2.00;;;8.00;37.70;;;;;;6210400;22;20439;-93
2023/02/27 13:00:11;;;;;;;6.90;1.70;;;8.40;39.60;;;;;;6209658;22;20429;-94
2023/02/27 13:02:55;;;;;;;6.20;1.80;;;8.90;40.30;;;;;;6223570;23;20416;-95
2023/02/27 13:33:53;;;;;;;5.57;1.90;;;9.60;29.90;;;;;;6172383;23;20507;-85
2023/02/27 13:36:31;;;;;;;6.77;2.07;;;8.90;36.30;;;;;;6163822;23;20957;-84
2023/02/27 14:02:24;;;;;;;;;;;;;;;;;;;;;
2023/02/27 14:04:55;;;;;;;6.57;1.50;;;6.70;43.50;;;;;;6193279;23;20438;-85
2023/02/27 14:07:34;;;;;;;4.67;1.60;;;6.60;45.00;;;;;;6184556;23;20511;-87
2023/02/27 14:10:12;;;;;;;5.07;1.30;;;6.40;43.10;;;;;;6193880;23;20408;-85
2023/02/27 14:15:56;;;;;;;6.80;1.73;;;6.20;45.80;;;;;;6183370;23;20452;-85
2023/02/27 14:19:05;;;;;;;5.70;2.00;;;6.40;47.90;;;;;;6193774;23;20417;-85
2023/02/27 14:21:57;;;;;;;7.43;1.93;;;6.50;46.00;;;;;;6194020;23;20413;-85
2023/02/27 14:24:28;;;;;;;6.57;1.73;;;6.50;42.20;;;;;;6194520;23;20452;-84
2023/02/27 14:29:32;;;;;;;4.00;1.50;;;6.40;45.10;;;;;;6167945;23;20788;-85
2023/02/27 14:32:07;;;;;;;4.73;2.00;;;6.40;42.40;;;;;;6192733;23;20440;-84
2023/02/27 14:34:38;;;;;;;4.77;1.60;;;6.60;47.90;;;;;;6192801;23;20448;-84
2023/02/27 14:37:12;;;;;;;6.53;2.10;;;6.60;41.90;;;;;;6192835;23;20416;-84
2023/02/27 14:39:44;;;;;;;5.30;2.27;;;6.70;46.20;;;;;;6192783;23;20396;-84
2023/02/27 14:42:43;;;;;;;7.17;1.80;;;7.00;42.70;;;;;;6193669;23;20409;-84
2023/02/27 14:45:21;;;;;;;4.90;1.57;;;7.20;43.50;;;;;;6193587;23;20440;-84
2023/02/27 14:47:50;;;;;;;6.00;2.27;;;7.10;43.70;;;;;;6194733;23;20427;-84
2023/02/27 14:50:41;;;;;;;6.83;2.30;;;6.90;46.50;;;;;;6184893;23;20416;-84
2023/02/27 14:53:25;;;;;;;7.80;2.43;;;6.80;48.70;;;;;;6184774;23;20401;-84
2023/02/27 14:55:58;;;;;;;7.40;2.20;;;6.70;48.10;;;;;;6195030;23;20452;-83
2023/02/27 14:58:29;;;;;;;5.93;2.30;;;6.70;49.60;;;;;;6194068;23;20423;-84
2023/02/27 15:01:14;;;;;;;4.80;1.90;;;6.70;47.40;;;;;;6194952;23;20417;-84
2023/02/27 15:03:48;;;;;;;6.03;2.33;;;6.80;47.80;;;;;;6194717;23;20423;-84
2023/02/27 15:06:19;;;;;;;5.60;2.43;;;6.70;46.30;;;;;;6194684;23;20511;-84
2023/02/27 15:08:52;;;;;;;6.53;1.90;;;6.70;48.70;;;;;;6194126;23;20909;-84
2023/02/27 15:11:22;;;;;;;6.30;2.10;;;6.60;49.30;;;;;;6194765;23;20495;-83
2023/02/27 15:13:54;;;;;;;5.40;1.90;;;6.40;50.50;;;;;;6194630;23;20889;-84
2023/02/27 15:16:38;;;;;;;4.83;1.63;;;6.70;49.10;;;;;;6194923;23;20401;-85
2023/02/27 15:19:15;;;;;;;6.30;1.90;;;6.80;50.60;;;;;;6184896;23;20429;-84
2023/02/27 15:21:49;;;;;;;7.70;2.20;;;6.60;50.50;;;;;;6194463;23;20405;-84
2023/02/27 15:27:05;;;;;;;6.80;1.63;;;6.70;47.70;;;;;;6186829;23;20527;-84
2023/02/27 15:29:38;;;;;;;4.20;1.60;;;6.60;47.30;;;;;;6192347;23;20404;-84
2023/02/27 15:32:08;;;;;;;6.07;2.63;;;6.50;47.60;;;;;;6193433;23;20439;-84
2023/02/27 15:42:39;;;;;;;4.77;1.70;;;6.20;51.80;;;;;;6183124;23;20451;-84
2023/02/27 16:04:05;;;;;;;7.03;2.47;;;4.80;57.50;;;;;;6183653;23;20439;-82
2023/02/27 16:09:29;;;;;;;5.67;2.20;;;5.00;57.60;;;;;;6162678;23;20756;-82
2023/02/27 16:12:13;;;;;;;5.77;2.40;;;5.30;53.50;;;;;;6181897;23;20396;-82
2023/02/27 16:14:45;;;;;;;5.60;2.73;;;5.30;53.20;;;;;;6180916;23;20503;-83
2023/02/27 16:17:29;;;;;;;6.57;2.57;;;5.10;54.50;;;;;;6181719;23;20417;-82
2023/02/27 16:20:00;;;;;;;7.80;2.80;;;4.90;56.50;;;;;;6193803;23;20850;-82
2023/02/27 16:22:31;;;;;;;5.70;2.83;;;4.70;56.10;;;;;;6194259;23;20482;-83
2023/02/27 16:25:19;;;;;;;4.90;2.50;;;4.50;55.30;;;;;;6182904;23;20453;-82
2023/02/27 16:46:03;;;;;;;8.57;3.10;;;4.00;56.80;;;;;;6164333;23;20761;-84
2023/02/27 16:48:38;;;;;;;6.07;3.13;;;4.00;58.70;;;;;;6183166;23;20413;-84
2023/02/27 16:51:10;;;;;;;5.83;3.00;;;3.90;58.70;;;;;;6194290;23;20431;-85
2023/02/27 16:54:34;;;;;;;6.27;3.47;;;3.90;59.20;;;;;;6193368;23;20461;-83
2023/02/27 16:57:16;;;;;;;7.63;3.90;;;3.70;59.60;;;;;;6164099;23;20421;-84
2023/02/27 17:13:03;;;;;;;10.47;3.67;;;3.10;68.10;;;;;;6170258;23;20461;-85
